Startpagina
METAR-TAF:

METAR-TAF

Vliegvelden :

Maracaibo, Venezuela

breedte: 10-34N, lengte: 071-44W, hoogte: 66 m

Actueel weer

Dit bericht is 14 uur en het 29 minuten geleden gemaakt, om 20:00 UTC
Wind 4 kt uit het zuidwesten
Temperatuur 33°C
Vochtigheid 46%
Druk 1009 hPa
Zicht 10 km of meer
Verspreide wolken op 1600 ft

METAR: SVMC 182000Z 23004KT 9999 SCT016 33/20 Q1009

Tijdstip: 06:29 (10:29 UTC)

Verwachting

Dit bericht is 6 uur en het 29 minuten geleden gemaakt, om 04:00 UTC
Verwachting geldig van 19 om 06 UTC tot 20 om 06 UTC
Wind 10 kt uit het noordwesten
Zicht 10 km of meer
Verspreide wolken op 1600 ft
Wijzigt naar
van 19 om 06 UTC tot 19 om 10 UTC
Wind 6 kt uit het westen
Weinig wolken op 1600 ft
Verspreide wolken op 7000 ft

TAF: SVMC 190400Z 1906/2006 31010KT 9999 SCT016 TX33/19Z TN24/08Z BECMG 1906/1910 27006KT FEW016 SCT070

Waarnemingen en weersverwachtingen van meer dan 4000 vliegvelden (METAR en TAF).

De beschikbare stations zijn de gele en rode punten op de kaart.

Ga met uw muis naar het station om de naam te zien.

Klik dan om waarnemingen en weersverwachtingen te zien.

kaart wijzigen: klik op de groene knoppen met een zwart kruis om in te zoomen, op de groene knop met een streepje om uit te zoomen of op de groene pijlen voor aangrenzende kaarten.


METAR-TAF: